sensor_id;sensor_type;location;lat;lon;timestamp;P1;durP1;ratioP1;P2;durP2;ratioP2
67715;SDS011;54508;43.238;25.306;2023-09-30T00:00:41;3.00;;;2.70;;
67715;SDS011;54508;43.238;25.306;2023-09-30T00:03:07;3.28;;;2.65;;
67715;SDS011;54508;43.238;25.306;2023-09-30T00:05:33;2.97;;;2.63;;
67715;SDS011;54508;43.238;25.306;2023-09-30T00:07:58;4.00;;;3.07;;
67715;SDS011;54508;43.238;25.306;2023-09-30T00:10:23;2.87;;;2.50;;
67715;SDS011;54508;43.238;25.306;2023-09-30T00:12:49;2.70;;;2.50;;
67715;SDS011;54508;43.238;25.306;2023-09-30T00:15:14;3.92;;;2.83;;
67715;SDS011;54508;43.238;25.306;2023-09-30T00:17:40;4.57;;;2.47;;
67715;SDS011;54508;43.238;25.306;2023-09-30T00:20:06;2.93;;;2.60;;
67715;SDS011;54508;43.238;25.306;2023-09-30T00:22:32;3.15;;;2.45;;
67715;SDS011;54508;43.238;25.306;2023-09-30T00:24:58;3.00;;;2.70;;
67715;SDS011;54508;43.238;25.306;2023-09-30T00:27:23;3.50;;;2.77;;
67715;SDS011;54508;43.238;25.306;2023-09-30T00:29:48;3.30;;;2.93;;
67715;SDS011;54508;43.238;25.306;2023-09-30T00:32:14;3.23;;;2.60;;
67715;SDS011;54508;43.238;25.306;2023-09-30T00:34:39;4.30;;;3.20;;
67715;SDS011;54508;43.238;25.306;2023-09-30T00:37:05;3.03;;;2.73;;
67715;SDS011;54508;43.238;25.306;2023-09-30T00:39:32;5.10;;;2.90;;
67715;SDS011;54508;43.238;25.306;2023-09-30T00:41:58;3.15;;;2.85;;
67715;SDS011;54508;43.238;25.306;2023-09-30T00:44:26;4.55;;;3.53;;
67715;SDS011;54508;43.238;25.306;2023-09-30T00:46:52;3.55;;;2.83;;
67715;SDS011;54508;43.238;25.306;2023-09-30T00:49:20;6.20;;;3.30;;
67715;SDS011;54508;43.238;25.306;2023-09-30T00:51:46;3.47;;;2.80;;
67715;SDS011;54508;43.238;25.306;2023-09-30T00:54:12;3.10;;;2.80;;
67715;SDS011;54508;43.238;25.306;2023-09-30T00:56:39;3.57;;;2.73;;
67715;SDS011;54508;43.238;25.306;2023-09-30T00:59:09;4.35;;;3.10;;
67715;SDS011;54508;43.238;25.306;2023-09-30T01:01:34;3.63;;;3.00;;
67715;SDS011;54508;43.238;25.306;2023-09-30T01:04:01;3.25;;;2.67;;
67715;SDS011;54508;43.238;25.306;2023-09-30T01:06:27;2.88;;;2.53;;
67715;SDS011;54508;43.238;25.306;2023-09-30T01:08:52;3.03;;;2.73;;
67715;SDS011;54508;43.238;25.306;2023-09-30T01:11:18;3.03;;;2.73;;
67715;SDS011;54508;43.238;25.306;2023-09-30T01:13:43;3.45;;;2.90;;
67715;SDS011;54508;43.238;25.306;2023-09-30T01:16:10;2.87;;;2.57;;
67715;SDS011;54508;43.238;25.306;2023-09-30T01:18:36;4.00;;;3.00;;
67715;SDS011;54508;43.238;25.306;2023-09-30T01:21:02;4.00;;;2.97;;
67715;SDS011;54508;43.238;25.306;2023-09-30T01:23:30;3.80;;;3.05;;
67715;SDS011;54508;43.238;25.306;2023-09-30T01:26:07;4.55;;;3.40;;
67715;SDS011;54508;43.238;25.306;2023-09-30T01:28:34;4.17;;;3.40;;
67715;SDS011;54508;43.238;25.306;2023-09-30T01:31:00;5.47;;;3.67;;
67715;SDS011;54508;43.238;25.306;2023-09-30T01:33:26;3.87;;;3.30;;
67715;SDS011;54508;43.238;25.306;2023-09-30T01:35:52;5.80;;;3.50;;
67715;SDS011;54508;43.238;25.306;2023-09-30T01:38:17;4.00;;;3.60;;
67715;SDS011;54508;43.238;25.306;2023-09-30T01:40:43;4.25;;;3.58;;
67715;SDS011;54508;43.238;25.306;2023-09-30T01:43:08;3.23;;;2.90;;
67715;SDS011;54508;43.238;25.306;2023-09-30T01:45:34;3.13;;;2.83;;
67715;SDS011;54508;43.238;25.306;2023-09-30T01:48:01;3.28;;;2.97;;
67715;SDS011;54508;43.238;25.306;2023-09-30T01:50:27;5.33;;;3.57;;
67715;SDS011;54508;43.238;25.306;2023-09-30T01:52:52;4.60;;;3.47;;
67715;SDS011;54508;43.238;25.306;2023-09-30T01:55:18;5.50;;;3.13;;
67715;SDS011;54508;43.238;25.306;2023-09-30T01:57:43;6.50;;;4.00;;
67715;SDS011;54508;43.238;25.306;2023-09-30T02:00:09;6.20;;;4.23;;
67715;SDS011;54508;43.238;25.306;2023-09-30T02:02:35;7.20;;;3.58;;
67715;SDS011;54508;43.238;25.306;2023-09-30T02:05:01;3.25;;;2.95;;
67715;SDS011;54508;43.238;25.306;2023-09-30T02:07:27;5.13;;;3.53;;
67715;SDS011;54508;43.238;25.306;2023-09-30T02:09:54;4.32;;;3.50;;
67715;SDS011;54508;43.238;25.306;2023-09-30T02:12:19;6.70;;;3.60;;
67715;SDS011;54508;43.238;25.306;2023-09-30T02:14:45;3.78;;;3.42;;
67715;SDS011;54508;43.238;25.306;2023-09-30T02:17:11;3.85;;;3.35;;
67715;SDS011;54508;43.238;25.306;2023-09-30T02:19:38;3.95;;;3.55;;
67715;SDS011;54508;43.238;25.306;2023-09-30T02:22:05;4.90;;;3.40;;
67715;SDS011;54508;43.238;25.306;2023-09-30T02:24:31;7.82;;;5.10;;
67715;SDS011;54508;43.238;25.306;2023-09-30T02:26:56;8.40;;;4.97;;
67715;SDS011;54508;43.238;25.306;2023-09-30T02:29:22;8.03;;;5.23;;
67715;SDS011;54508;43.238;25.306;2023-09-30T02:31:47;6.43;;;4.65;;
67715;SDS011;54508;43.238;25.306;2023-09-30T02:34:13;7.33;;;4.93;;
67715;SDS011;54508;43.238;25.306;2023-09-30T02:36:39;7.30;;;5.05;;
67715;SDS011;54508;43.238;25.306;2023-09-30T02:39:04;9.52;;;5.18;;
67715;SDS011;54508;43.238;25.306;2023-09-30T02:41:30;7.97;;;5.13;;
67715;SDS011;54508;43.238;25.306;2023-09-30T02:43:56;8.25;;;5.40;;
67715;SDS011;54508;43.238;25.306;2023-09-30T02:46:21;8.40;;;4.60;;
67715;SDS011;54508;43.238;25.306;2023-09-30T02:48:46;8.27;;;4.67;;
67715;SDS011;54508;43.238;25.306;2023-09-30T02:51:12;8.57;;;4.47;;
67715;SDS011;54508;43.238;25.306;2023-09-30T02:53:37;5.15;;;4.40;;
67715;SDS011;54508;43.238;25.306;2023-09-30T02:56:03;5.67;;;4.57;;
67715;SDS011;54508;43.238;25.306;2023-09-30T02:58:29;5.40;;;4.53;;
67715;SDS011;54508;43.238;25.306;2023-09-30T03:00:55;10.00;;;5.50;;
67715;SDS011;54508;43.238;25.306;2023-09-30T03:03:20;9.48;;;4.80;;
67715;SDS011;54508;43.238;25.306;2023-09-30T03:05:46;10.13;;;4.80;;
67715;SDS011;54508;43.238;25.306;2023-09-30T03:08:15;8.45;;;4.72;;
67715;SDS011;54508;43.238;25.306;2023-09-30T03:10:40;6.78;;;4.82;;
67715;SDS011;54508;43.238;25.306;2023-09-30T03:13:06;9.07;;;4.40;;
67715;SDS011;54508;43.238;25.306;2023-09-30T03:15:34;6.32;;;4.35;;
67715;SDS011;54508;43.238;25.306;2023-09-30T03:18:03;6.50;;;4.28;;
67715;SDS011;54508;43.238;25.306;2023-09-30T03:20:29;7.30;;;4.30;;
67715;SDS011;54508;43.238;25.306;2023-09-30T03:22:56;6.13;;;4.57;;
67715;SDS011;54508;43.238;25.306;2023-09-30T03:25:21;7.63;;;3.60;;
67715;SDS011;54508;43.238;25.306;2023-09-30T03:27:47;6.68;;;4.63;;
67715;SDS011;54508;43.238;25.306;2023-09-30T03:30:16;8.02;;;4.47;;
67715;SDS011;54508;43.238;25.306;2023-09-30T03:32:42;5.88;;;4.47;;
67715;SDS011;54508;43.238;25.306;2023-09-30T03:35:08;7.15;;;4.30;;
67715;SDS011;54508;43.238;25.306;2023-09-30T03:37:44;10.20;;;4.80;;
67715;SDS011;54508;43.238;25.306;2023-09-30T03:40:13;13.27;;;4.45;;
67715;SDS011;54508;43.238;25.306;2023-09-30T03:42:45;6.63;;;3.90;;
67715;SDS011;54508;43.238;25.306;2023-09-30T03:45:14;6.73;;;3.73;;
67715;SDS011;54508;43.238;25.306;2023-09-30T03:47:40;7.80;;;4.20;;
67715;SDS011;54508;43.238;25.306;2023-09-30T03:50:06;8.52;;;4.47;;
67715;SDS011;54508;43.238;25.306;2023-09-30T03:52:39;4.27;;;3.33;;
67715;SDS011;54508;43.238;25.306;2023-09-30T03:55:04;8.07;;;3.42;;
67715;SDS011;54508;43.238;25.306;2023-09-30T03:57:31;7.32;;;3.80;;
67715;SDS011;54508;43.238;25.306;2023-09-30T03:59:57;6.03;;;3.72;;
67715;SDS011;54508;43.238;25.306;2023-09-30T04:02:22;9.05;;;4.18;;
67715;SDS011;54508;43.238;25.306;2023-09-30T04:04:48;6.50;;;4.10;;
67715;SDS011;54508;43.238;25.306;2023-09-30T04:07:16;5.57;;;3.90;;
67715;SDS011;54508;43.238;25.306;2023-09-30T04:09:42;6.50;;;3.80;;
67715;SDS011;54508;43.238;25.306;2023-09-30T04:12:07;4.40;;;3.80;;
67715;SDS011;54508;43.238;25.306;2023-09-30T04:14:33;7.87;;;4.13;;
67715;SDS011;54508;43.238;25.306;2023-09-30T04:16:58;5.73;;;4.00;;
67715;SDS011;54508;43.238;25.306;2023-09-30T04:19:23;10.00;;;3.75;;
67715;SDS011;54508;43.238;25.306;2023-09-30T04:21:49;6.28;;;3.83;;
67715;SDS011;54508;43.238;25.306;2023-09-30T04:24:15;6.00;;;4.05;;
67715;SDS011;54508;43.238;25.306;2023-09-30T04:26:40;6.05;;;3.63;;
67715;SDS011;54508;43.238;25.306;2023-09-30T04:29:06;5.27;;;3.77;;
67715;SDS011;54508;43.238;25.306;2023-09-30T04:31:36;8.85;;;3.85;;
67715;SDS011;54508;43.238;25.306;2023-09-30T04:34:04;7.50;;;3.67;;
67715;SDS011;54508;43.238;25.306;2023-09-30T04:36:30;9.67;;;4.53;;
67715;SDS011;54508;43.238;25.306;2023-09-30T04:38:56;8.35;;;4.40;;
67715;SDS011;54508;43.238;25.306;2023-09-30T04:41:22;7.37;;;5.17;;
67715;SDS011;54508;43.238;25.306;2023-09-30T04:43:47;7.75;;;4.18;;
67715;SDS011;54508;43.238;25.306;2023-09-30T04:46:13;10.43;;;4.83;;
67715;SDS011;54508;43.238;25.306;2023-09-30T04:48:39;9.63;;;4.87;;
67715;SDS011;54508;43.238;25.306;2023-09-30T04:51:07;8.88;;;4.75;;
67715;SDS011;54508;43.238;25.306;2023-09-30T04:53:33;9.35;;;4.75;;
67715;SDS011;54508;43.238;25.306;2023-09-30T04:55:59;7.57;;;4.13;;
67715;SDS011;54508;43.238;25.306;2023-09-30T04:58:24;11.98;;;4.80;;
67715;SDS011;54508;43.238;25.306;2023-09-30T05:00:50;7.47;;;4.47;;
67715;SDS011;54508;43.238;25.306;2023-09-30T05:03:15;6.77;;;4.10;;
67715;SDS011;54508;43.238;25.306;2023-09-30T05:05:41;5.93;;;4.28;;
67715;SDS011;54508;43.238;25.306;2023-09-30T05:08:07;7.87;;;4.30;;
67715;SDS011;54508;43.238;25.306;2023-09-30T05:10:33;5.97;;;4.00;;
67715;SDS011;54508;43.238;25.306;2023-09-30T05:12:58;5.33;;;4.20;;
67715;SDS011;54508;43.238;25.306;2023-09-30T05:15:24;10.13;;;4.45;;
67715;SDS011;54508;43.238;25.306;2023-09-30T05:17:50;5.90;;;4.07;;
67715;SDS011;54508;43.238;25.306;2023-09-30T05:20:16;15.82;;;6.18;;
67715;SDS011;54508;43.238;25.306;2023-09-30T05:22:45;11.55;;;7.20;;
67715;SDS011;54508;43.238;25.306;2023-09-30T05:25:14;15.63;;;7.53;;
67715;SDS011;54508;43.238;25.306;2023-09-30T05:27:44;16.77;;;10.65;;
67715;SDS011;54508;43.238;25.306;2023-09-30T05:30:10;31.83;;;20.98;;
67715;SDS011;54508;43.238;25.306;2023-09-30T05:32:40;25.38;;;18.02;;
67715;SDS011;54508;43.238;25.306;2023-09-30T05:35:06;16.80;;;8.53;;
67715;SDS011;54508;43.238;25.306;2023-09-30T05:37:41;11.90;;;7.15;;
67715;SDS011;54508;43.238;25.306;2023-09-30T05:40:06;11.40;;;5.97;;
67715;SDS011;54508;43.238;25.306;2023-09-30T05:42:42;10.10;;;6.63;;
67715;SDS011;54508;43.238;25.306;2023-09-30T05:45:09;13.15;;;5.93;;
67715;SDS011;54508;43.238;25.306;2023-09-30T05:47:37;13.82;;;6.15;;
67715;SDS011;54508;43.238;25.306;2023-09-30T05:50:03;15.53;;;6.70;;
67715;SDS011;54508;43.238;25.306;2023-09-30T05:52:29;13.48;;;6.95;;
67715;SDS011;54508;43.238;25.306;2023-09-30T05:54:54;14.20;;;6.60;;
67715;SDS011;54508;43.238;25.306;2023-09-30T05:57:20;16.08;;;7.00;;
67715;SDS011;54508;43.238;25.306;2023-09-30T05:59:45;16.17;;;7.72;;
67715;SDS011;54508;43.238;25.306;2023-09-30T06:02:11;10.37;;;7.50;;
67715;SDS011;54508;43.238;25.306;2023-09-30T06:04:37;21.52;;;7.80;;
67715;SDS011;54508;43.238;25.306;2023-09-30T06:07:03;11.07;;;6.70;;
67715;SDS011;54508;43.238;25.306;2023-09-30T06:09:29;15.73;;;7.40;;
67715;SDS011;54508;43.238;25.306;2023-09-30T06:11:55;20.17;;;10.43;;
67715;SDS011;54508;43.238;25.306;2023-09-30T06:14:21;23.77;;;9.20;;
67715;SDS011;54508;43.238;25.306;2023-09-30T06:16:46;19.27;;;8.87;;
67715;SDS011;54508;43.238;25.306;2023-09-30T06:19:12;13.18;;;7.45;;
67715;SDS011;54508;43.238;25.306;2023-09-30T06:21:38;25.67;;;7.73;;
67715;SDS011;54508;43.238;25.306;2023-09-30T06:24:04;16.33;;;7.45;;
67715;SDS011;54508;43.238;25.306;2023-09-30T06:26:30;18.30;;;7.10;;
67715;SDS011;54508;43.238;25.306;2023-09-30T06:28:56;29.77;;;7.55;;
67715;SDS011;54508;43.238;25.306;2023-09-30T06:31:22;20.47;;;7.00;;
67715;SDS011;54508;43.238;25.306;2023-09-30T06:33:48;19.50;;;8.13;;
67715;SDS011;54508;43.238;25.306;2023-09-30T06:36:13;18.17;;;7.00;;
67715;SDS011;54508;43.238;25.306;2023-09-30T06:38:39;13.65;;;7.28;;
67715;SDS011;54508;43.238;25.306;2023-09-30T06:41:07;21.52;;;6.82;;
67715;SDS011;54508;43.238;25.306;2023-09-30T06:43:33;12.70;;;6.70;;
67715;SDS011;54508;43.238;25.306;2023-09-30T06:46:05;19.90;;;7.15;;
67715;SDS011;54508;43.238;25.306;2023-09-30T06:48:32;11.73;;;6.63;;
67715;SDS011;54508;43.238;25.306;2023-09-30T06:50:58;16.93;;;6.80;;
67715;SDS011;54508;43.238;25.306;2023-09-30T06:53:24;13.25;;;6.45;;
67715;SDS011;54508;43.238;25.306;2023-09-30T06:55:49;16.00;;;6.77;;
67715;SDS011;54508;43.238;25.306;2023-09-30T06:58:16;14.40;;;8.00;;
67715;SDS011;54508;43.238;25.306;2023-09-30T07:00:46;13.77;;;7.38;;
67715;SDS011;54508;43.238;25.306;2023-09-30T07:03:15;13.15;;;7.03;;
67715;SDS011;54508;43.238;25.306;2023-09-30T07:05:41;10.27;;;6.40;;
67715;SDS011;54508;43.238;25.306;2023-09-30T07:08:07;12.93;;;6.40;;
67715;SDS011;54508;43.238;25.306;2023-09-30T07:10:33;11.05;;;6.38;;
67715;SDS011;54508;43.238;25.306;2023-09-30T07:13:01;12.33;;;6.00;;
67715;SDS011;54508;43.238;25.306;2023-09-30T07:15:27;8.63;;;6.10;;
67715;SDS011;54508;43.238;25.306;2023-09-30T07:17:52;10.43;;;6.47;;
67715;SDS011;54508;43.238;25.306;2023-09-30T07:20:18;12.00;;;6.60;;
67715;SDS011;54508;43.238;25.306;2023-09-30T07:22:44;16.50;;;6.43;;
67715;SDS011;54508;43.238;25.306;2023-09-30T07:25:10;14.70;;;6.40;;
67715;SDS011;54508;43.238;25.306;2023-09-30T07:27:35;19.33;;;6.03;;
67715;SDS011;54508;43.238;25.306;2023-09-30T07:30:01;9.93;;;6.40;;
67715;SDS011;54508;43.238;25.306;2023-09-30T07:32:27;11.70;;;6.43;;
67715;SDS011;54508;43.238;25.306;2023-09-30T07:34:54;12.18;;;6.38;;
67715;SDS011;54508;43.238;25.306;2023-09-30T07:37:20;15.80;;;5.77;;
67715;SDS011;54508;43.238;25.306;2023-09-30T07:40:03;10.80;;;5.57;;
67715;SDS011;54508;43.238;25.306;2023-09-30T07:42:30;15.35;;;6.00;;
67715;SDS011;54508;43.238;25.306;2023-09-30T07:45:06;12.93;;;5.50;;
67715;SDS011;54508;43.238;25.306;2023-09-30T07:47:32;11.55;;;6.22;;
67715;SDS011;54508;43.238;25.306;2023-09-30T07:50:00;14.50;;;6.28;;
67715;SDS011;54508;43.238;25.306;2023-09-30T07:52:34;9.18;;;5.90;;
67715;SDS011;54508;43.238;25.306;2023-09-30T07:55:00;10.77;;;5.87;;
67715;SDS011;54508;43.238;25.306;2023-09-30T07:57:25;19.85;;;5.65;;
67715;SDS011;54508;43.238;25.306;2023-09-30T07:59:51;9.20;;;4.80;;
67715;SDS011;54508;43.238;25.306;2023-09-30T08:02:16;9.93;;;5.03;;
67715;SDS011;54508;43.238;25.306;2023-09-30T08:04:43;10.60;;;5.40;;
67715;SDS011;54508;43.238;25.306;2023-09-30T08:07:08;12.20;;;5.73;;
67715;SDS011;54508;43.238;25.306;2023-09-30T08:09:34;14.88;;;5.93;;
67715;SDS011;54508;43.238;25.306;2023-09-30T08:12:02;12.70;;;5.63;;
67715;SDS011;54508;43.238;25.306;2023-09-30T08:14:28;11.53;;;6.73;;
67715;SDS011;54508;43.238;25.306;2023-09-30T08:16:53;13.23;;;8.57;;
67715;SDS011;54508;43.238;25.306;2023-09-30T08:19:19;14.32;;;6.75;;
67715;SDS011;54508;43.238;25.306;2023-09-30T08:21:45;10.10;;;6.63;;
67715;SDS011;54508;43.238;25.306;2023-09-30T08:24:11;10.32;;;5.70;;
67715;SDS011;54508;43.238;25.306;2023-09-30T08:26:36;9.57;;;5.03;;
67715;SDS011;54508;43.238;25.306;2023-09-30T08:29:03;9.43;;;5.38;;
67715;SDS011;54508;43.238;25.306;2023-09-30T08:31:28;16.83;;;11.03;;
67715;SDS011;54508;43.238;25.306;2023-09-30T08:33:54;11.40;;;6.80;;
67715;SDS011;54508;43.238;25.306;2023-09-30T08:36:19;16.75;;;9.70;;
67715;SDS011;54508;43.238;25.306;2023-09-30T08:38:45;11.17;;;6.90;;
67715;SDS011;54508;43.238;25.306;2023-09-30T08:41:11;13.50;;;6.25;;
67715;SDS011;54508;43.238;25.306;2023-09-30T08:43:49;19.85;;;5.93;;
67715;SDS011;54508;43.238;25.306;2023-09-30T08:46:14;9.77;;;6.73;;
67715;SDS011;54508;43.238;25.306;2023-09-30T08:48:41;15.55;;;11.30;;
67715;SDS011;54508;43.238;25.306;2023-09-30T08:51:08;16.30;;;9.40;;
67715;SDS011;54508;43.238;25.306;2023-09-30T08:53:34;12.57;;;7.07;;
67715;SDS011;54508;43.238;25.306;2023-09-30T08:55:59;8.63;;;5.93;;
67715;SDS011;54508;43.238;25.306;2023-09-30T08:58:29;6.50;;;4.65;;
67715;SDS011;54508;43.238;25.306;2023-09-30T09:00:55;7.40;;;5.57;;
67715;SDS011;54508;43.238;25.306;2023-09-30T09:03:21;9.05;;;7.25;;
67715;SDS011;54508;43.238;25.306;2023-09-30T09:05:53;11.25;;;6.97;;
67715;SDS011;54508;43.238;25.306;2023-09-30T09:08:22;8.73;;;6.20;;
67715;SDS011;54508;43.238;25.306;2023-09-30T09:13:26;10.85;;;5.40;;
67715;SDS011;54508;43.238;25.306;2023-09-30T09:16:05;5.70;;;5.10;;
67715;SDS011;54508;43.238;25.306;2023-09-30T09:18:32;6.85;;;4.60;;
67715;SDS011;54508;43.238;25.306;2023-09-30T09:21:07;10.00;;;5.15;;
67715;SDS011;54508;43.238;25.306;2023-09-30T09:23:40;9.10;;;4.90;;
67715;SDS011;54508;43.238;25.306;2023-09-30T09:26:07;9.93;;;7.85;;
67715;SDS011;54508;43.238;25.306;2023-09-30T09:28:34;7.50;;;6.63;;
67715;SDS011;54508;43.238;25.306;2023-09-30T09:31:01;9.40;;;6.93;;
67715;SDS011;54508;43.238;25.306;2023-09-30T09:33:35;5.73;;;5.13;;
67715;SDS011;54508;43.238;25.306;2023-09-30T09:36:02;12.75;;;5.47;;
67715;SDS011;54508;43.238;25.306;2023-09-30T09:38:27;7.03;;;4.77;;
67715;SDS011;54508;43.238;25.306;2023-09-30T09:41:08;4.80;;;3.92;;
67715;SDS011;54508;43.238;25.306;2023-09-30T09:43:35;6.47;;;4.38;;
67715;SDS011;54508;43.238;25.306;2023-09-30T09:46:02;4.82;;;4.13;;
67715;SDS011;54508;43.238;25.306;2023-09-30T09:48:30;4.45;;;3.78;;
67715;SDS011;54508;43.238;25.306;2023-09-30T09:50:56;5.00;;;4.10;;
67715;SDS011;54508;43.238;25.306;2023-09-30T09:53:21;4.97;;;4.33;;
67715;SDS011;54508;43.238;25.306;2023-09-30T09:55:48;5.43;;;4.50;;
67715;SDS011;54508;43.238;25.306;2023-09-30T09:58:14;5.15;;;4.38;;
67715;SDS011;54508;43.238;25.306;2023-09-30T10:00:39;6.97;;;4.70;;
67715;SDS011;54508;43.238;25.306;2023-09-30T10:03:06;5.13;;;4.20;;
67715;SDS011;54508;43.238;25.306;2023-09-30T10:05:31;6.50;;;5.17;;
67715;SDS011;54508;43.238;25.306;2023-09-30T10:08:01;7.10;;;4.45;;
67715;SDS011;54508;43.238;25.306;2023-09-30T10:10:43;6.43;;;4.43;;
67715;SDS011;54508;43.238;25.306;2023-09-30T10:19:11;5.60;;;4.05;;
67715;SDS011;54508;43.238;25.306;2023-09-30T10:21:42;6.68;;;4.53;;
67715;SDS011;54508;43.238;25.306;2023-09-30T10:31:10;6.50;;;4.32;;
67715;SDS011;54508;43.238;25.306;2023-09-30T10:36:40;3.90;;;3.35;;
67715;SDS011;54508;43.238;25.306;2023-09-30T10:39:13;5.10;;;4.60;;
67715;SDS011;54508;43.238;25.306;2023-09-30T10:44:43;6.97;;;4.32;;
67715;SDS011;54508;43.238;25.306;2023-09-30T10:49:47;6.25;;;4.07;;
67715;SDS011;54508;43.238;25.306;2023-09-30T10:52:12;7.27;;;4.43;;
67715;SDS011;54508;43.238;25.306;2023-09-30T10:54:47;5.65;;;4.18;;
67715;SDS011;54508;43.238;25.306;2023-09-30T10:57:14;5.20;;;4.07;;
67715;SDS011;54508;43.238;25.306;2023-09-30T11:00:13;6.00;;;4.22;;
67715;SDS011;54508;43.238;25.306;2023-09-30T11:02:50;5.97;;;3.70;;
67715;SDS011;54508;43.238;25.306;2023-09-30T11:05:17;6.43;;;4.65;;
67715;SDS011;54508;43.238;25.306;2023-09-30T11:07:51;8.20;;;4.22;;
67715;SDS011;54508;43.238;25.306;2023-09-30T11:10:20;6.63;;;4.35;;
67715;SDS011;54508;43.238;25.306;2023-09-30T11:12:54;5.30;;;4.45;;
67715;SDS011;54508;43.238;25.306;2023-09-30T11:15:25;5.30;;;3.97;;
67715;SDS011;54508;43.238;25.306;2023-09-30T11:17:53;5.30;;;4.00;;
67715;SDS011;54508;43.238;25.306;2023-09-30T11:20:24;4.55;;;4.00;;
67715;SDS011;54508;43.238;25.306;2023-09-30T11:22:50;5.80;;;3.73;;
67715;SDS011;54508;43.238;25.306;2023-09-30T11:25:23;5.57;;;3.40;;
67715;SDS011;54508;43.238;25.306;2023-09-30T11:27:49;5.63;;;3.47;;
67715;SDS011;54508;43.238;25.306;2023-09-30T11:30:15;6.70;;;3.73;;
67715;SDS011;54508;43.238;25.306;2023-09-30T11:32:40;5.63;;;3.25;;
67715;SDS011;54508;43.238;25.306;2023-09-30T11:35:21;4.75;;;3.72;;
67715;SDS011;54508;43.238;25.306;2023-09-30T11:37:47;5.07;;;3.53;;
67715;SDS011;54508;43.238;25.306;2023-09-30T11:40:13;4.90;;;3.45;;
67715;SDS011;54508;43.238;25.306;2023-09-30T11:42:39;3.43;;;3.10;;
67715;SDS011;54508;43.238;25.306;2023-09-30T11:45:18;6.05;;;3.67;;
67715;SDS011;54508;43.238;25.306;2023-09-30T11:47:49;6.70;;;3.55;;
67715;SDS011;54508;43.238;25.306;2023-09-30T11:50:15;4.70;;;3.40;;
67715;SDS011;54508;43.238;25.306;2023-09-30T11:52:43;7.63;;;3.60;;
67715;SDS011;54508;43.238;25.306;2023-09-30T11:55:11;5.10;;;3.40;;
67715;SDS011;54508;43.238;25.306;2023-09-30T11:57:37;4.35;;;3.42;;
67715;SDS011;54508;43.238;25.306;2023-09-30T12:00:04;4.05;;;3.13;;
67715;SDS011;54508;43.238;25.306;2023-09-30T12:02:38;4.63;;;3.30;;
67715;SDS011;54508;43.238;25.306;2023-09-30T12:05:05;6.15;;;3.90;;
67715;SDS011;54508;43.238;25.306;2023-09-30T12:07:36;5.75;;;3.80;;
67715;SDS011;54508;43.238;25.306;2023-09-30T12:10:03;4.72;;;3.20;;
67715;SDS011;54508;43.238;25.306;2023-09-30T12:12:28;5.60;;;3.30;;
67715;SDS011;54508;43.238;25.306;2023-09-30T12:14:54;4.50;;;3.40;;
67715;SDS011;54508;43.238;25.306;2023-09-30T12:17:20;7.15;;;3.60;;
67715;SDS011;54508;43.238;25.306;2023-09-30T12:19:47;4.20;;;3.42;;
67715;SDS011;54508;43.238;25.306;2023-09-30T12:22:13;4.40;;;3.70;;
67715;SDS011;54508;43.238;25.306;2023-09-30T12:24:38;4.80;;;3.37;;
67715;SDS011;54508;43.238;25.306;2023-09-30T12:27:07;4.40;;;3.35;;
67715;SDS011;54508;43.238;25.306;2023-09-30T12:29:36;5.25;;;3.58;;
67715;SDS011;54508;43.238;25.306;2023-09-30T12:32:03;4.72;;;4.15;;
67715;SDS011;54508;43.238;25.306;2023-09-30T12:34:30;3.92;;;3.53;;
67715;SDS011;54508;43.238;25.306;2023-09-30T12:36:58;5.00;;;4.50;;
67715;SDS011;54508;43.238;25.306;2023-09-30T12:39:24;5.57;;;3.63;;
67715;SDS011;54508;43.238;25.306;2023-09-30T12:41:50;5.10;;;3.88;;
67715;SDS011;54508;43.238;25.306;2023-09-30T12:44:16;4.15;;;3.67;;
67715;SDS011;54508;43.238;25.306;2023-09-30T12:46:42;5.03;;;4.20;;
67715;SDS011;54508;43.238;25.306;2023-09-30T12:49:08;6.53;;;4.07;;
67715;SDS011;54508;43.238;25.306;2023-09-30T12:51:34;5.90;;;4.00;;
67715;SDS011;54508;43.238;25.306;2023-09-30T12:54:00;6.13;;;4.00;;
67715;SDS011;54508;43.238;25.306;2023-09-30T12:56:26;4.85;;;4.03;;
67715;SDS011;54508;43.238;25.306;2023-09-30T12:58:51;5.83;;;4.53;;
67715;SDS011;54508;43.238;25.306;2023-09-30T13:01:17;4.53;;;3.80;;
67715;SDS011;54508;43.238;25.306;2023-09-30T13:03:46;4.30;;;3.88;;
67715;SDS011;54508;43.238;25.306;2023-09-30T13:06:11;4.88;;;4.07;;
67715;SDS011;54508;43.238;25.306;2023-09-30T13:08:37;4.67;;;3.87;;
67715;SDS011;54508;43.238;25.306;2023-09-30T13:11:02;6.43;;;4.30;;
67715;SDS011;54508;43.238;25.306;2023-09-30T13:13:31;4.28;;;3.88;;
67715;SDS011;54508;43.238;25.306;2023-09-30T13:16:02;4.90;;;4.40;;
67715;SDS011;54508;43.238;25.306;2023-09-30T13:18:30;5.55;;;4.35;;
67715;SDS011;54508;43.238;25.306;2023-09-30T13:20:56;5.27;;;3.93;;
67715;SDS011;54508;43.238;25.306;2023-09-30T13:23:22;5.85;;;4.78;;
67715;SDS011;54508;43.238;25.306;2023-09-30T13:25:59;5.20;;;4.37;;
67715;SDS011;54508;43.238;25.306;2023-09-30T13:28:24;6.30;;;4.70;;
67715;SDS011;54508;43.238;25.306;2023-09-30T13:30:52;5.95;;;4.72;;
67715;SDS011;54508;43.238;25.306;2023-09-30T13:33:18;4.40;;;3.93;;
67715;SDS011;54508;43.238;25.306;2023-09-30T13:35:45;6.70;;;4.53;;
67715;SDS011;54508;43.238;25.306;2023-09-30T13:38:11;5.00;;;4.50;;
67715;SDS011;54508;43.238;25.306;2023-09-30T13:40:37;4.67;;;4.10;;
67715;SDS011;54508;43.238;25.306;2023-09-30T13:43:05;4.77;;;4.00;;
67715;SDS011;54508;43.238;25.306;2023-09-30T13:45:32;4.78;;;4.28;;
67715;SDS011;54508;43.238;25.306;2023-09-30T13:47:57;5.10;;;3.92;;
67715;SDS011;54508;43.238;25.306;2023-09-30T13:50:23;4.60;;;4.10;;
67715;SDS011;54508;43.238;25.306;2023-09-30T13:52:48;5.23;;;4.10;;
67715;SDS011;54508;43.238;25.306;2023-09-30T13:55:14;4.70;;;4.23;;
67715;SDS011;54508;43.238;25.306;2023-09-30T13:57:47;7.10;;;4.40;;
67715;SDS011;54508;43.238;25.306;2023-09-30T14:00:12;5.15;;;4.00;;
67715;SDS011;54508;43.238;25.306;2023-09-30T14:02:38;3.90;;;3.35;;
67715;SDS011;54508;43.238;25.306;2023-09-30T14:05:05;4.83;;;3.80;;
67715;SDS011;54508;43.238;25.306;2023-09-30T14:07:33;4.63;;;3.75;;
67715;SDS011;54508;43.238;25.306;2023-09-30T14:09:59;4.70;;;4.30;;
67715;SDS011;54508;43.238;25.306;2023-09-30T14:12:24;4.20;;;3.80;;
67715;SDS011;54508;43.238;25.306;2023-09-30T14:14:50;5.10;;;4.20;;
67715;SDS011;54508;43.238;25.306;2023-09-30T14:17:16;5.22;;;4.10;;
67715;SDS011;54508;43.238;25.306;2023-09-30T14:19:42;4.43;;;3.80;;
67715;SDS011;54508;43.238;25.306;2023-09-30T14:22:08;4.28;;;3.85;;
67715;SDS011;54508;43.238;25.306;2023-09-30T14:24:34;4.93;;;3.70;;
67715;SDS011;54508;43.238;25.306;2023-09-30T14:27:01;3.65;;;3.35;;
67715;SDS011;54508;43.238;25.306;2023-09-30T14:29:27;4.57;;;3.92;;
67715;SDS011;54508;43.238;25.306;2023-09-30T14:31:53;4.00;;;3.60;;
67715;SDS011;54508;43.238;25.306;2023-09-30T14:34:19;4.35;;;3.65;;
67715;SDS011;54508;43.238;25.306;2023-09-30T14:36:44;4.20;;;3.80;;
67715;SDS011;54508;43.238;25.306;2023-09-30T14:39:10;3.92;;;3.25;;
67715;SDS011;54508;43.238;25.306;2023-09-30T14:41:36;3.85;;;3.45;;
67715;SDS011;54508;43.238;25.306;2023-09-30T14:44:01;4.38;;;3.97;;
67715;SDS011;54508;43.238;25.306;2023-09-30T14:46:46;3.67;;;3.37;;
67715;SDS011;54508;43.238;25.306;2023-09-30T14:49:12;3.90;;;3.50;;
67715;SDS011;54508;43.238;25.306;2023-09-30T14:51:38;4.50;;;4.03;;
67715;SDS011;54508;43.238;25.306;2023-09-30T14:54:03;4.97;;;4.47;;